Time;durP1;ratioP1;P1;durP2;ratioP2;P2;SDS_P1;SDS_P2;PMS_P1;PMS_P2;Temp;Humidity;BMP_temperature;BMP_pressure;BME280_temperature;BME280_humidity;BME280_pressure;Samples;Min_cycle;Max_cycle;Signal;HPM_P1;HPM_P2
2023/03/13 00:01:59;;;;;;;1.45;0.85;;;7.80;1.00;;;;;;5029773;28;20487;-67
2023/03/13 00:04:29;;;;;;;1.90;0.70;;;7.80;1.00;;;;;;5026607;28;21036;-67
2023/03/13 00:06:57;;;;;;;0.80;0.80;;;7.90;1.00;;;;;;5029822;28;20430;-67
2023/03/13 00:09:24;;;;;;;0.47;0.47;;;8.00;1.00;;;;;;5030128;28;20442;-67
2023/03/13 00:11:50;;;;;;;0.50;0.50;;;8.00;1.00;;;;;;5029846;28;20483;-67
2023/03/13 00:14:17;;;;;;;3.75;0.50;;;8.00;1.00;;;;;;5029269;28;20521;-67
2023/03/13 00:16:44;;;;;;;0.73;0.63;;;8.00;1.00;;;;;;5029713;28;20442;-67
2023/03/13 00:19:17;;;;;;;1.30;0.60;;;8.10;1.00;;;;;;5029731;28;20504;-67
2023/03/13 00:21:44;;;;;;;1.05;0.73;;;8.10;1.00;;;;;;5027426;28;20517;-67
2023/03/13 00:24:11;;;;;;;1.48;0.80;;;8.20;1.00;;;;;;5029204;28;20434;-67
2023/03/13 00:26:38;;;;;;;0.50;0.50;;;8.40;1.00;;;;;;5029914;28;20442;-67
2023/03/13 00:29:05;;;;;;;2.03;0.80;;;8.40;1.00;;;;;;5028188;28;20422;-67
2023/03/13 00:31:40;;;;;;;5.10;1.13;;;8.40;1.00;;;;;;5029723;28;20517;-67
2023/03/13 00:34:09;;;;;;;1.52;0.98;;;8.30;1.00;;;;;;5027260;28;20470;-68
2023/03/13 00:36:36;;;;;;;0.65;0.65;;;8.30;1.00;;;;;;5029709;28;20912;-67
2023/03/13 00:39:05;;;;;;;4.60;0.80;;;8.20;1.00;;;;;;5029398;28;20939;-67
2023/03/13 00:41:32;;;;;;;1.20;0.47;;;8.20;1.00;;;;;;5029570;28;20521;-67
2023/03/13 00:43:59;;;;;;;2.20;1.23;;;8.20;1.00;;;;;;5028725;28;20431;-68
2023/03/13 00:46:30;;;;;;;0.50;0.50;;;8.10;1.00;;;;;;5029433;28;20505;-67
2023/03/13 00:49:00;;;;;;;0.40;0.40;;;8.10;1.00;;;;;;5027195;28;21132;-67
2023/03/13 00:51:30;;;;;;;0.90;0.70;;;8.00;1.00;;;;;;5029616;28;20438;-67
2023/03/13 00:54:01;;;;;;;1.10;0.43;;;8.00;1.00;;;;;;5027090;28;20494;-67
2023/03/13 00:56:28;;;;;;;0.95;0.65;;;8.00;1.00;;;;;;5029515;28;20517;-67
2023/03/13 00:58:55;;;;;;;2.15;0.80;;;7.90;1.00;;;;;;5029356;28;20438;-67
2023/03/13 01:01:28;;;;;;;2.70;0.63;;;7.90;1.00;;;;;;5027289;28;20497;-67
2023/03/13 01:04:12;;;;;;;1.05;0.63;;;7.90;1.00;;;;;;5028104;28;20972;-67
2023/03/13 01:06:41;;;;;;;0.70;0.70;;;7.90;1.00;;;;;;5028971;28;20933;-67
2023/03/13 01:09:15;;;;;;;0.30;0.30;;;7.90;1.00;;;;;;5027538;28;20439;-67
2023/03/13 01:11:44;;;;;;;1.80;0.57;;;7.90;1.00;;;;;;5028820;28;20518;-67
2023/03/13 01:14:18;;;;;;;3.70;0.50;;;7.90;1.00;;;;;;5028887;28;20767;-67
2023/03/13 01:16:48;;;;;;;1.13;0.73;;;7.90;1.00;;;;;;5028928;28;20577;-67
2023/03/13 01:19:15;;;;;;;2.90;0.60;;;7.90;1.00;;;;;;5029099;28;20786;-68
2023/03/13 01:21:43;;;;;;;2.22;0.70;;;7.90;1.00;;;;;;5028798;28;20465;-67
2023/03/13 01:24:10;;;;;;;1.42;0.75;;;7.80;1.00;;;;;;5029577;28;20434;-67
2023/03/13 01:26:40;;;;;;;2.70;1.13;;;7.80;1.00;;;;;;5033109;28;20525;-67
2023/03/13 01:29:07;;;;;;;0.50;0.50;;;7.80;1.00;;;;;;5033135;28;20431;-67
2023/03/13 01:31:36;;;;;;;0.57;0.57;;;7.80;1.00;;;;;;5031181;28;20825;-67
2023/03/13 01:34:05;;;;;;;0.43;0.43;;;7.80;1.00;;;;;;5030875;28;20422;-67
2023/03/13 01:36:34;;;;;;;2.05;0.68;;;7.90;1.00;;;;;;5032550;28;20431;-67
2023/03/13 01:39:00;;;;;;;3.75;0.75;;;8.00;1.00;;;;;;5024628;28;20422;-67
2023/03/13 01:41:30;;;;;;;0.90;0.57;;;8.20;1.00;;;;;;5026363;28;20492;-67
2023/03/13 01:43:59;;;;;;;1.00;1.00;;;8.30;1.00;;;;;;5018315;28;20453;-67
2023/03/13 01:46:28;;;;;;;2.10;0.60;;;8.30;1.00;;;;;;5012601;28;20440;-67
2023/03/13 01:49:11;;;;;;;1.30;0.60;;;8.40;1.00;;;;;;5013113;28;20527;-67
2023/03/13 01:51:52;;;;;;;0.25;0.22;;;8.40;1.00;;;;;;5016363;28;20779;-67
2023/03/13 01:54:31;;;;;;;1.67;0.82;;;8.40;1.00;;;;;;5032193;28;20422;-67
2023/03/13 01:57:01;;;;;;;1.30;1.13;;;8.40;1.00;;;;;;5032237;28;20426;-67
2023/03/13 01:59:59;;;;;;;1.05;0.75;;;8.40;1.00;;;;;;5029911;28;20430;-67
2023/03/13 02:02:27;;;;;;;0.50;0.50;;;8.40;1.00;;;;;;5029138;28;20434;-67
2023/03/13 02:04:56;;;;;;;5.20;0.80;;;;;;;;;;5031822;28;20929;-67
2023/03/13 02:07:25;;;;;;;3.30;0.60;;;;;;;;;;5032164;28;20446;-67
2023/03/13 02:09:55;;;;;;;0.20;0.20;;;8.50;1.00;;;;;;5032386;28;20502;-67
2023/03/13 02:12:32;;;;;;;1.45;0.75;;;;;;;;;;5031055;28;20435;-67
2023/03/13 02:15:04;;;;;;;0.75;0.60;;;8.60;1.00;;;;;;5031649;28;20473;-67
2023/03/13 02:17:34;;;;;;;0.50;0.50;;;8.60;1.00;;;;;;5030468;28;20442;-67
2023/03/13 02:20:00;;;;;;;0.80;0.47;;;8.60;1.00;;;;;;5032618;28;20530;-67
2023/03/13 02:22:34;;;;;;;1.90;0.40;;;8.60;1.00;;;;;;5031197;28;20461;-67
2023/03/13 02:25:24;;;;;;;1.40;0.65;;;8.70;1.00;;;;;;5031579;28;20435;-68
2023/03/13 02:27:56;;;;;;;3.22;1.20;;;8.70;1.00;;;;;;5029733;28;20430;-67
2023/03/13 02:30:23;;;;;;;1.60;0.40;;;8.70;1.00;;;;;;5032190;28;20431;-67
2023/03/13 02:32:50;;;;;;;0.57;0.57;;;8.70;1.00;;;;;;5032004;28;20527;-67
2023/03/13 02:35:20;;;;;;;1.42;0.38;;;8.70;1.00;;;;;;5030259;28;20914;-67
2023/03/13 02:37:52;;;;;;;2.03;0.52;;;8.70;1.00;;;;;;5029866;28;20925;-67
2023/03/13 02:40:27;;;;;;;0.23;0.23;;;8.80;1.00;;;;;;5031628;28;20442;-67
2023/03/13 02:42:55;;;;;;;0.30;0.30;;;8.70;1.00;;;;;;5031913;28;20434;-67
2023/03/13 02:45:22;;;;;;;0.40;0.40;;;8.70;1.00;;;;;;5029799;28;20521;-67
2023/03/13 02:47:49;;;;;;;0.93;0.73;;;8.70;1.00;;;;;;5032143;28;20514;-67
2023/03/13 02:50:16;;;;;;;0.28;0.28;;;8.60;1.00;;;;;;5031701;28;20457;-67
2023/03/13 02:52:57;;;;;;;1.10;0.70;;;8.60;1.00;;;;;;5030216;28;20621;-67
2023/03/13 02:55:31;;;;;;;1.10;0.47;;;8.60;1.00;;;;;;5031140;28;20437;-67
2023/03/13 02:57:58;;;;;;;1.63;0.43;;;8.60;1.00;;;;;;5029668;28;20437;-68
2023/03/13 03:00:25;;;;;;;5.20;0.40;;;8.60;1.00;;;;;;5029697;28;21129;-67
2023/03/13 03:02:54;;;;;;;3.90;0.65;;;8.60;1.00;;;;;;5031384;28;20769;-67
2023/03/13 03:05:21;;;;;;;0.40;0.30;;;8.60;1.00;;;;;;5029592;28;20464;-68
2023/03/13 03:07:49;;;;;;;1.00;0.53;;;8.60;1.00;;;;;;5031440;28;20431;-67
2023/03/13 03:10:19;;;;;;;6.85;0.95;;;8.60;1.00;;;;;;5031008;28;20526;-67
2023/03/13 03:12:49;;;;;;;1.00;1.00;;;8.60;1.00;;;;;;5031359;28;20789;-67
2023/03/13 03:15:16;;;;;;;2.40;0.60;;;8.60;1.00;;;;;;5030713;28;20443;-67
2023/03/13 03:17:42;;;;;;;1.02;0.60;;;8.60;1.00;;;;;;5029707;28;20439;-67
2023/03/13 03:20:10;;;;;;;0.50;0.50;;;8.60;1.00;;;;;;5030855;28;20507;-67
2023/03/13 03:22:39;;;;;;;0.70;0.35;;;8.60;1.00;;;;;;5030727;28;20897;-67
2023/03/13 03:25:09;;;;;;;0.50;0.50;;;8.70;1.00;;;;;;5029057;28;20481;-67
2023/03/13 03:27:36;;;;;;;1.25;0.63;;;8.70;1.00;;;;;;5031109;28;20431;-67
2023/03/13 03:30:07;;;;;;;1.05;0.88;;;8.70;1.00;;;;;;5030852;28;20458;-67
2023/03/13 03:32:33;;;;;;;1.30;1.00;;;8.70;1.00;;;;;;5027531;28;20441;-67
2023/03/13 03:35:00;;;;;;;0.40;0.30;;;8.70;1.00;;;;;;5022393;28;20440;-67
2023/03/13 03:37:30;;;;;;;1.60;0.60;;;8.80;1.00;;;;;;5011184;28;20445;-67
2023/03/13 03:39:56;;;;;;;2.40;0.80;;;8.80;1.00;;;;;;5029180;28;20443;-66
2023/03/13 03:42:26;;;;;;;2.30;1.20;;;8.70;32.50;;;;;;5030525;28;20441;-66
2023/03/13 03:44:53;;;;;;;2.28;0.70;;;8.70;86.70;;;;;;5030018;28;20433;-66
2023/03/13 03:47:19;;;;;;;3.65;0.43;;;8.60;99.90;;;;;;5030039;28;20441;-66
2023/03/13 03:49:49;;;;;;;0.80;0.25;;;8.60;99.90;;;;;;5027528;28;20431;-66
2023/03/13 03:52:16;;;;;;;3.00;0.20;;;8.50;99.90;;;;;;5030446;28;20431;-65
2023/03/13 03:54:42;;;;;;;0.30;0.30;;;8.50;99.90;;;;;;5027008;28;20427;-65
2023/03/13 03:57:09;;;;;;;3.20;0.60;;;8.50;99.90;;;;;;5030546;28;20431;-67
2023/03/13 03:59:36;;;;;;;1.10;0.50;;;8.60;99.90;;;;;;5027909;28;20518;-66
2023/03/13 04:02:03;;;;;;;0.40;0.40;;;8.60;99.90;;;;;;5030098;28;20433;-65
2023/03/13 04:04:32;;;;;;;2.00;0.40;;;8.70;99.90;;;;;;5029584;28;20808;-66
2023/03/13 04:07:02;;;;;;;0.20;0.20;;;8.70;99.90;;;;;;5027820;28;20803;-66
2023/03/13 04:09:29;;;;;;;0.30;0.30;;;8.70;99.90;;;;;;5030150;28;20433;-65
2023/03/13 04:11:57;;;;;;;0.10;0.10;;;8.60;99.90;;;;;;5029728;28;20445;-65
2023/03/13 04:14:24;;;;;;;0.43;0.43;;;8.60;1.00;;;;;;5027547;28;20430;-65
2023/03/13 04:16:51;;;;;;;3.58;0.40;;;8.60;1.00;;;;;;5028139;28;20457;-65
2023/03/13 04:19:18;;;;;;;1.80;0.43;;;8.60;1.00;;;;;;5028260;28;20431;-65
2023/03/13 04:21:44;;;;;;;0.70;0.30;;;8.60;5.70;;;;;;5028156;28;20441;-65
2023/03/13 04:24:13;;;;;;;0.40;0.40;;;8.60;99.90;;;;;;5028520;28;20983;-65
2023/03/13 04:26:40;;;;;;;0.15;0.15;;;8.60;99.90;;;;;;5029375;28;20457;-65
2023/03/13 04:29:07;;;;;;;0.20;0.20;;;8.70;1.00;;;;;;5029904;28;20447;-65
2023/03/13 04:31:34;;;;;;;0.13;0.13;;;8.80;99.90;;;;;;5029544;28;20441;-65
2023/03/13 04:34:02;;;;;;;0.20;0.20;;;8.80;1.00;;;;;;5026961;28;20438;-65
2023/03/13 04:36:29;;;;;;;0.40;0.40;;;9.00;1.00;;;;;;5029555;28;20422;-65
2023/03/13 04:38:56;;;;;;;0.10;0.10;;;;;;;;;;5029643;28;20427;-65
2023/03/13 04:41:23;;;;;;;0.17;0.17;;;9.00;1.00;;;;;;5027871;28;20446;-65
2023/03/13 04:43:52;;;;;;;0.95;0.45;;;;;;;;;;5029002;28;20442;-65
2023/03/13 04:46:22;;;;;;;0.80;0.30;;;;;;;;;;5029393;28;20490;-65
2023/03/13 04:48:49;;;;;;;0.20;0.20;;;9.00;1.00;;;;;;5029320;28;20442;-65
2023/03/13 04:51:16;;;;;;;5.80;0.20;;;9.10;1.00;;;;;;5028859;28;20522;-65
2023/03/13 04:53:42;;;;;;;0.68;0.65;;;9.10;1.00;;;;;;5027002;28;20441;-65
2023/03/13 04:56:15;;;;;;;0.10;0.10;;;9.00;99.90;;;;;;5028908;28;20427;-65
2023/03/13 04:58:42;;;;;;;0.35;0.32;;;9.00;99.90;;;;;;5026316;28;20522;-65
2023/03/13 05:01:12;;;;;;;0.10;0.10;;;9.00;9.40;;;;;;5028273;28;20442;-66
2023/03/13 05:03:39;;;;;;;0.15;0.15;;;9.00;99.90;;;;;;5029379;28;20435;-66
2023/03/13 05:06:06;;;;;;;0.10;0.10;;;9.00;99.90;;;;;;5029179;28;20462;-66
2023/03/13 05:08:35;;;;;;;0.22;0.22;;;9.00;15.50;;;;;;5026824;28;20457;-66
2023/03/13 05:11:02;;;;;;;1.40;0.60;;;9.10;99.90;;;;;;5029416;28;20466;-66
2023/03/13 05:13:29;;;;;;;2.40;0.40;;;;;;;;;;5029305;28;20781;-66
2023/03/13 05:15:56;;;;;;;0.20;0.10;;;9.10;1.00;;;;;;5028996;28;20437;-66
2023/03/13 05:18:23;;;;;;;0.80;0.25;;;9.10;1.00;;;;;;5029395;28;20430;-66
2023/03/13 05:20:49;;;;;;;0.10;0.10;;;9.10;1.00;;;;;;5029272;28;20438;-66
2023/03/13 05:23:16;;;;;;;0.30;0.30;;;9.10;99.90;;;;;;5027395;28;20419;-66
2023/03/13 05:25:43;;;;;;;0.30;0.20;;;9.10;99.90;;;;;;5009220;28;20443;-67
2023/03/13 05:28:10;;;;;;;0.10;0.10;;;9.10;99.90;;;;;;5009656;28;20432;-67
2023/03/13 05:30:37;;;;;;;1.40;0.10;;;9.00;99.90;;;;;;5009531;28;20545;-67
2023/03/13 05:33:03;;;;;;;3.40;0.60;;;9.10;1.00;;;;;;5024428;28;20441;-66
2023/03/13 05:35:30;;;;;;;0.35;0.20;;;9.10;1.00;;;;;;5026290;28;20430;-67
2023/03/13 05:37:57;;;;;;;0.40;0.30;;;9.10;1.00;;;;;;5027269;28;20924;-67
2023/03/13 05:40:24;;;;;;;0.20;0.20;;;9.10;1.00;;;;;;5027053;28;20472;-67
2023/03/13 05:42:51;;;;;;;0.20;0.20;;;;;;;;;;5027944;28;20514;-67
2023/03/13 05:45:21;;;;;;;0.20;0.20;;;;;;;;;;5028281;28;20435;-66
2023/03/13 05:47:48;;;;;;;0.20;0.20;;;;;;;;;;5027057;28;20518;-67
2023/03/13 05:50:15;;;;;;;0.05;0.05;;;9.20;1.00;;;;;;5028669;28;20435;-67
2023/03/13 05:52:42;;;;;;;0.20;0.20;;;;;;;;;;5029274;28;20431;-67
2023/03/13 05:55:09;;;;;;;1.15;0.35;;;;;;;;;;5028629;28;20526;-67
2023/03/13 05:57:36;;;;;;;0.30;0.30;;;;;;;;;;5027935;28;20434;-67
2023/03/13 06:00:06;;;;;;;0.13;0.13;;;;;;;;;;5028890;28;20431;-67
2023/03/13 06:02:33;;;;;;;0.20;0.20;;;;;;;;;;5026628;28;20431;-67
2023/03/13 06:05:02;;;;;;;0.13;0.13;;;;;;;;;;5028151;28;20453;-67
2023/03/13 06:07:30;;;;;;;0.20;0.20;;;;;;;;;;5028623;28;20513;-67
2023/03/13 06:09:57;;;;;;;0.30;0.30;;;;;;;;;;5030807;28;20438;-67
2023/03/13 06:12:24;;;;;;;0.20;0.20;;;;;;;;;;5030843;28;20464;-67
2023/03/13 06:14:51;;;;;;;1.30;0.17;;;;;;;;;;5032216;28;20778;-67
2023/03/13 06:17:18;;;;;;;0.20;0.20;;;;;;;;;;5032439;28;20461;-66
2023/03/13 06:19:46;;;;;;;0.30;0.30;;;;;;;;;;5032508;28;20441;-67
2023/03/13 06:22:13;;;;;;;0.20;0.20;;;;;;;;;;5031478;28;20778;-67
2023/03/13 06:24:43;;;;;;;0.20;0.20;;;;;;;;;;5031231;28;20522;-67
2023/03/13 06:27:11;;;;;;;0.10;0.10;;;;;;;;;;5032630;28;20430;-67
2023/03/13 06:29:38;;;;;;;0.30;0.30;;;;;;;;;;5030561;28;20430;-67
2023/03/13 06:32:06;;;;;;;0.10;0.10;;;;;;;;;;5032310;28;20961;-66
2023/03/13 06:34:39;;;;;;;0.27;0.27;;;;;;;;;;5030382;28;20830;-69
2023/03/13 06:37:12;;;;;;;0.40;0.40;;;;;;;;;;5032212;28;20441;-66
2023/03/13 06:39:39;;;;;;;0.20;0.20;;;;;;;;;;5030638;28;20430;-67
2023/03/13 06:42:06;;;;;;;0.35;0.35;;;;;;;;;;5030886;28;20450;-67
2023/03/13 06:44:36;;;;;;;0.30;0.30;;;;;;;;;;5031048;28;20435;-66
2023/03/13 06:47:03;;;;;;;0.30;0.30;;;;;;;;;;5030688;28;20461;-66
2023/03/13 06:49:30;;;;;;;0.30;0.30;;;;;;;;;;5031753;28;20480;-66
2023/03/13 06:51:58;;;;;;;0.15;0.15;;;;;;;;;;5031583;28;20427;-66
2023/03/13 06:54:25;;;;;;;0.10;0.10;;;;;;;;;;5030253;28;20434;-66
2023/03/13 06:56:52;;;;;;;0.30;0.20;;;;;;;;;;5030576;28;20992;-66
2023/03/13 06:59:22;;;;;;;0.25;0.20;;;;;;;;;;5030037;28;20990;-66
2023/03/13 07:01:49;;;;;;;0.20;0.20;;;;;;;;;;5030515;28;20438;-66
2023/03/13 07:04:16;;;;;;;0.20;0.20;;;;;;;;;;5028353;28;20453;-67
2023/03/13 07:06:44;;;;;;;0.10;0.10;;;;;;;;;;5031318;28;20459;-67
2023/03/13 07:09:11;;;;;;;0.10;0.10;;;9.30;1.00;;;;;;5031605;28;20529;-66
2023/03/13 07:11:38;;;;;;;0.30;0.30;;;;;;;;;;5031326;28;20890;-66
2023/03/13 07:14:05;;;;;;;0.30;0.30;;;;;;;;;;5031105;28;20511;-66
2023/03/13 07:16:43;;;;;;;0.15;0.15;;;;;;;;;;5029722;28;20437;-67
2023/03/13 07:19:10;;;;;;;0.35;0.20;;;11.40;1.00;;;;;;5031536;28;20439;-66
2023/03/13 07:21:37;;;;;;;0.10;0.10;;;11.80;1.00;;;;;;5028265;28;20437;-66
2023/03/13 07:24:04;;;;;;;0.10;0.10;;;11.80;1.00;;;;;;5030165;28;20427;-67
2023/03/13 07:26:31;;;;;;;0.20;0.20;;;11.90;1.00;;;;;;5031221;28;20427;-66
2023/03/13 07:28:58;;;;;;;0.10;0.10;;;11.90;99.90;;;;;;5029382;28;20454;-67
2023/03/13 07:31:25;;;;;;;0.30;0.30;;;12.00;99.90;;;;;;5031088;28;20431;-67
2023/03/13 07:33:55;;;;;;;2.80;0.20;;;12.00;99.90;;;;;;5028362;28;20441;-67
2023/03/13 07:36:22;;;;;;;0.20;0.20;;;12.00;99.90;;;;;;5027312;28;21018;-66
2023/03/13 07:38:49;;;;;;;0.20;0.20;;;12.00;99.90;;;;;;5031087;28;20430;-66
2023/03/13 07:41:17;;;;;;;0.60;0.60;;;11.90;99.90;;;;;;5029782;28;20530;-66
2023/03/13 07:43:47;;;;;;;0.30;0.30;;;11.90;99.90;;;;;;5027080;28;20445;-66
2023/03/13 07:46:20;;;;;;;0.20;0.20;;;12.00;99.90;;;;;;5030736;28;20438;-67
2023/03/13 07:48:47;;;;;;;0.17;0.17;;;12.00;99.90;;;;;;5028704;28;20426;-66
2023/03/13 07:51:19;;;;;;;1.60;0.40;;;12.00;99.90;;;;;;5030839;28;20434;-66
2023/03/13 07:53:56;;;;;;;0.20;0.20;;;12.10;99.90;;;;;;5028912;28;21060;-67
2023/03/13 07:56:23;;;;;;;0.30;0.30;;;;;;;;;;5030540;28;20442;-66
2023/03/13 07:58:50;;;;;;;0.40;0.40;;;12.30;84.00;;;;;;5030696;28;20920;-66
2023/03/13 08:01:21;;;;;;;0.28;0.28;;;;;;;;;;5030134;28;20493;-67
2023/03/13 08:03:54;;;;;;;0.35;0.20;;;12.40;26.40;;;;;;5027076;28;20441;-67
2023/03/13 08:06:23;;;;;;;0.30;0.30;;;;;;;;;;5030303;28;20986;-66
2023/03/13 08:08:50;;;;;;;0.30;0.30;;;12.60;1.00;;;;;;5030597;28;20457;-67
2023/03/13 08:11:19;;;;;;;0.47;0.40;;;12.80;1.00;;;;;;5029961;28;20874;-67
2023/03/13 08:13:48;;;;;;;0.40;0.40;;;12.80;1.00;;;;;;5029654;28;20437;-66
2023/03/13 08:16:16;;;;;;;0.60;0.30;;;12.80;1.00;;;;;;5030163;28;20841;-66
2023/03/13 08:18:45;;;;;;;0.50;0.30;;;12.70;1.00;;;;;;5030349;28;20533;-66
2023/03/13 08:21:14;;;;;;;0.38;0.30;;;12.70;1.00;;;;;;5028117;28;20425;-66
2023/03/13 08:23:41;;;;;;;0.50;0.50;;;12.70;1.00;;;;;;5028603;28;20525;-67
2023/03/13 08:26:17;;;;;;;0.20;0.20;;;12.70;1.00;;;;;;5027815;28;20445;-66
2023/03/13 08:28:45;;;;;;;0.30;0.30;;;12.70;1.00;;;;;;5028446;28;20431;-67
2023/03/13 08:31:13;;;;;;;0.90;0.40;;;12.80;1.00;;;;;;5030087;28;20920;-67
2023/03/13 08:33:44;;;;;;;0.32;0.32;;;12.80;1.00;;;;;;5027033;28;20489;-67
2023/03/13 08:36:13;;;;;;;0.35;0.35;;;12.80;1.00;;;;;;5029860;28;20522;-67
2023/03/13 08:38:41;;;;;;;0.50;0.50;;;12.90;1.00;;;;;;5029821;28;20608;-67
2023/03/13 08:41:14;;;;;;;0.30;0.30;;;12.90;1.00;;;;;;5026470;28;20978;-67
2023/03/13 08:43:44;;;;;;;0.65;0.35;;;13.00;1.00;;;;;;5029305;28;20925;-67
2023/03/13 08:46:12;;;;;;;0.70;0.70;;;13.00;99.90;;;;;;5030132;28;20513;-67
2023/03/13 08:48:39;;;;;;;0.22;0.22;;;12.90;1.00;;;;;;5029877;28;20849;-67
2023/03/13 08:51:13;;;;;;;0.20;0.20;;;12.90;1.00;;;;;;5030060;28;20867;-66
2023/03/13 08:53:43;;;;;;;0.20;0.20;;;12.90;1.00;;;;;;5027862;28;20435;-67
2023/03/13 08:56:12;;;;;;;0.30;0.30;;;12.80;1.00;;;;;;5029546;28;20434;-67
2023/03/13 08:58:39;;;;;;;0.50;0.50;;;12.80;1.00;;;;;;5027255;28;20526;-67
2023/03/13 09:01:13;;;;;;;0.20;0.20;;;12.80;1.00;;;;;;5009929;28;20439;-67
2023/03/13 09:03:41;;;;;;;0.52;0.28;;;12.80;1.00;;;;;;5009908;28;20487;-67
2023/03/13 09:06:09;;;;;;;0.20;0.20;;;12.80;1.00;;;;;;5025343;28;20442;-67
2023/03/13 09:08:37;;;;;;;0.30;0.30;;;12.80;1.00;;;;;;5029811;28;20510;-67
2023/03/13 09:11:07;;;;;;;0.90;0.20;;;12.70;1.00;;;;;;5027153;28;20431;-67
2023/03/13 09:13:37;;;;;;;0.35;0.35;;;12.70;1.00;;;;;;5029497;28;20430;-66
2023/03/13 09:16:23;;;;;;;0.30;0.30;;;12.70;1.00;;;;;;5027458;28;20435;-66
2023/03/13 09:18:51;;;;;;;0.20;0.20;;;12.70;1.00;;;;;;5029752;28;20435;-67
2023/03/13 09:21:29;;;;;;;0.40;0.40;;;12.70;1.00;;;;;;5029871;28;20517;-67
2023/03/13 09:23:56;;;;;;;0.30;0.30;;;12.70;1.00;;;;;;5027393;28;20431;-67
2023/03/13 09:26:24;;;;;;;0.40;0.40;;;12.70;1.00;;;;;;5022619;28;20428;-67
2023/03/13 09:28:52;;;;;;;0.43;0.30;;;12.70;1.00;;;;;;5009738;28;20432;-67
2023/03/13 09:31:23;;;;;;;0.20;0.20;;;12.70;1.00;;;;;;5027135;28;21024;-67
2023/03/13 09:33:50;;;;;;;0.30;0.30;;;12.70;1.00;;;;;;5028839;28;20423;-67
2023/03/13 09:36:19;;;;;;;0.40;0.40;;;12.80;1.00;;;;;;5027973;28;20438;-67
2023/03/13 09:38:49;;;;;;;0.35;0.35;;;12.80;1.00;;;;;;5028316;28;20427;-67
2023/03/13 09:41:16;;;;;;;0.20;0.20;;;12.80;1.00;;;;;;5026578;28;20426;-66
2023/03/13 09:44:20;;;;;;;0.35;0.35;;;12.90;1.00;;;;;;5026523;28;20815;-66
2023/03/13 09:47:11;;;;;;;0.30;0.30;;;13.00;1.00;;;;;;5012373;28;20909;-66
2023/03/13 09:49:46;;;;;;;0.15;0.15;;;13.00;1.00;;;;;;5011717;28;20518;-66
2023/03/13 09:52:27;;;;;;;0.30;0.30;;;13.20;1.00;;;;;;5012118;28;20978;-66
2023/03/13 09:55:04;;;;;;;0.30;0.30;;;13.30;99.90;;;;;;5025452;28;20850;-66
2023/03/13 09:57:39;;;;;;;0.20;0.20;;;13.50;99.90;;;;;;5031786;28;20521;-66
2023/03/13 10:00:18;;;;;;;0.30;0.30;;;13.90;99.90;;;;;;5030174;28;20434;-66
2023/03/13 10:02:55;;;;;;;0.30;0.30;;;14.30;44.00;;;;;;5031746;28;20438;-66
2023/03/13 10:05:30;;;;;;;0.50;0.50;;;15.00;1.00;;;;;;5031290;28;20430;-67
2023/03/13 10:08:21;;;;;;;0.32;0.32;;;15.80;50.10;;;;;;5032085;28;20427;-66
2023/03/13 10:10:55;;;;;;;0.30;0.30;;;16.20;42.40;;;;;;5032285;28;20440;-66
2023/03/13 10:13:29;;;;;;;0.40;0.30;;;16.10;49.70;;;;;;5030116;28;20433;-66
2023/03/13 10:15:59;;;;;;;0.47;0.40;;;15.50;24.10;;;;;;5031092;28;20438;-66
2023/03/13 10:18:26;;;;;;;0.20;0.20;;;15.60;12.40;;;;;;5031622;28;20433;-66
2023/03/13 10:20:59;;;;;;;0.50;0.40;;;15.20;1.00;;;;;;5030917;28;20441;-64
2023/03/13 10:23:32;;;;;;;0.40;0.40;;;15.10;1.00;;;;;;5029661;28;20462;-66
2023/03/13 10:25:58;;;;;;;0.30;0.30;;;14.70;1.00;;;;;;5030652;28;20434;-66
2023/03/13 10:28:25;;;;;;;0.40;0.40;;;14.60;1.00;;;;;;5031478;28;20427;-66
2023/03/13 10:31:10;;;;;;;0.73;0.70;;;14.60;99.90;;;;;;5031306;28;20430;-66
2023/03/13 10:33:37;;;;;;;0.75;0.70;;;14.80;99.90;;;;;;5031108;28;20484;-66
2023/03/13 10:36:06;;;;;;;0.93;0.40;;;15.00;99.90;;;;;;5029474;28;20497;-66
2023/03/13 10:38:44;;;;;;;0.40;0.40;;;15.30;1.00;;;;;;5029323;28;20427;-66
2023/03/13 10:41:51;;;;;;;0.30;0.30;;;15.50;1.00;;;;;;5030659;28;20435;-65
2023/03/13 10:44:20;;;;;;;0.47;0.47;;;15.70;1.00;;;;;;5026608;28;20435;-66
2023/03/13 10:46:49;;;;;;;0.50;0.50;;;16.00;1.00;;;;;;5029087;28;20422;-66
2023/03/13 10:49:23;;;;;;;0.20;0.20;;;15.90;1.00;;;;;;5013603;28;20433;-66
2023/03/13 10:51:52;;;;;;;0.20;0.20;;;15.90;1.00;;;;;;5029240;28;20482;-66
2023/03/13 10:54:39;;;;;;;0.82;0.30;;;15.90;1.00;;;;;;5028297;28;20427;-65
2023/03/13 10:57:17;;;;;;;1.90;0.40;;;15.70;1.00;;;;;;5027920;28;20492;-66
2023/03/13 10:59:49;;;;;;;0.30;0.20;;;15.60;99.90;;;;;;5027620;28;20466;-66
2023/03/13 11:02:31;;;;;;;0.40;0.40;;;15.40;1.00;;;;;;5029058;28;20449;-66
2023/03/13 11:05:20;;;;;;;0.47;0.47;;;15.20;99.90;;;;;;5028359;28;20431;-66
2023/03/13 11:07:51;;;;;;;0.30;0.30;;;15.00;78.00;;;;;;5026995;28;20514;-65
2023/03/13 11:10:28;;;;;;;0.60;0.60;;;14.90;1.00;;;;;;5028544;28;20434;-66
2023/03/13 11:12:56;;;;;;;0.70;0.70;;;14.80;1.00;;;;;;5012413;28;20445;-66
2023/03/13 11:15:47;;;;;;;1.20;0.40;;;14.70;1.00;;;;;;5026469;28;21009;-66
2023/03/13 11:18:17;;;;;;;5.70;0.40;;;14.70;1.00;;;;;;5012236;28;20450;-66
2023/03/13 11:20:45;;;;;;;0.40;0.40;;;15.00;99.90;;;;;;5028268;28;20434;-66
2023/03/13 11:23:26;;;;;;;0.30;0.30;;;15.10;99.90;;;;;;5031353;28;20435;-66
2023/03/13 11:26:23;;;;;;;0.60;0.40;;;15.20;99.90;;;;;;5029111;28;20457;-66
2023/03/13 11:29:16;;;;;;;0.38;0.38;;;15.30;1.00;;;;;;5030068;28;20433;-65
2023/03/13 11:31:53;;;;;;;1.60;0.30;;;15.40;1.00;;;;;;5028375;28;20488;-65
2023/03/13 11:34:33;;;;;;;0.43;0.43;;;15.30;99.90;;;;;;5030048;28;20530;-66
2023/03/13 11:37:10;;;;;;;0.30;0.30;;;15.40;1.00;;;;;;5028252;28;20426;-66
2023/03/13 11:39:58;;;;;;;0.30;0.30;;;15.50;1.00;;;;;;5030697;28;20488;-66
2023/03/13 11:42:55;;;;;;;0.40;0.40;;;15.50;1.00;;;;;;5028131;28;20527;-66
2023/03/13 11:45:56;;;;;;;0.55;0.30;;;15.50;1.00;;;;;;5030210;28;20435;-65
2023/03/13 11:48:55;;;;;;;0.70;0.60;;;15.40;1.00;;;;;;5029027;28;20465;-66
2023/03/13 11:51:45;;;;;;;0.43;0.37;;;15.30;1.00;;;;;;5027686;28;20427;-65
2023/03/13 11:54:39;;;;;;;0.20;0.20;;;15.30;99.90;;;;;;5027258;28;20427;-66
2023/03/13 11:57:28;;;;;;;0.40;0.40;;;15.20;91.90;;;;;;5027869;28;20427;-65
2023/03/13 12:00:17;;;;;;;0.30;0.30;;;15.20;1.90;;;;;;5027742;28;20454;-65
2023/03/13 12:03:04;;;;;;;0.40;0.30;;;15.10;31.30;;;;;;5027592;28;20443;-65
2023/03/13 12:05:45;;;;;;;0.20;0.20;;;15.10;1.00;;;;;;5025553;28;20459;-66
2023/03/13 12:08:19;;;;;;;0.20;0.20;;;15.20;99.90;;;;;;5027099;28;20550;-65
2023/03/13 12:11:04;;;;;;;1.80;0.50;;;15.30;1.00;;;;;;5027427;28;20423;-67
2023/03/13 12:13:40;;;;;;;0.40;0.40;;;15.50;99.90;;;;;;5027156;28;20431;-66
2023/03/13 12:16:20;;;;;;;0.50;0.50;;;15.60;99.90;;;;;;5027929;28;20433;-65
2023/03/13 12:18:48;;;;;;;0.50;0.40;;;15.60;1.00;;;;;;5027641;28;20579;-65
2023/03/13 12:21:32;;;;;;;0.30;0.30;;;15.60;99.90;;;;;;5025678;28;20426;-65
2023/03/13 12:24:11;;;;;;;1.07;0.50;;;15.70;99.90;;;;;;5007094;28;21085;-66
2023/03/13 12:26:46;;;;;;;0.30;0.30;;;15.70;99.90;;;;;;5008251;28;20442;-65
2023/03/13 12:29:52;;;;;;;0.80;0.40;;;15.60;99.90;;;;;;5010458;28;20788;-66
2023/03/13 12:32:44;;;;;;;0.32;0.32;;;15.70;99.90;;;;;;5020516;28;20445;-65
2023/03/13 12:35:27;;;;;;;0.73;0.52;;;15.90;99.90;;;;;;5029618;28;20427;-65
2023/03/13 12:38:18;;;;;;;0.30;0.30;;;16.00;99.90;;;;;;5028291;28;20430;-65
2023/03/13 12:41:12;;;;;;;0.50;0.50;;;16.10;99.90;;;;;;5028742;28;20490;-66
2023/03/13 12:43:41;;;;;;;1.40;0.40;;;16.20;99.90;;;;;;5028549;28;20435;-65
2023/03/13 12:46:28;;;;;;;0.43;0.43;;;16.40;99.90;;;;;;5029521;28;20437;-66
2023/03/13 12:49:17;;;;;;;1.05;0.35;;;16.70;99.90;;;;;;5029434;28;20470;-65
2023/03/13 12:52:11;;;;;;;0.20;0.20;;;16.70;99.90;;;;;;5026981;28;20434;-66
2023/03/13 12:55:22;;;;;;;5.90;0.60;;;16.80;99.90;;;;;;5029438;28;20949;-65
2023/03/13 12:58:09;;;;;;;0.20;0.20;;;16.80;99.90;;;;;;5028029;28;20423;-65
2023/03/13 13:00:39;;;;;;;0.20;0.20;;;16.70;1.00;;;;;;5027998;28;20458;-65
2023/03/13 13:03:35;;;;;;;1.25;0.22;;;16.60;1.00;;;;;;5027662;28;20437;-66
2023/03/13 13:06:05;;;;;;;0.35;0.35;;;16.50;1.00;;;;;;5018073;28;20435;-66
2023/03/13 13:09:00;;;;;;;0.30;0.30;;;16.40;1.00;;;;;;5029666;28;20435;-66
2023/03/13 13:11:36;;;;;;;1.00;0.43;;;16.60;99.90;;;;;;5026614;28;20426;-66
2023/03/13 13:14:17;;;;;;;0.30;0.30;;;16.90;1.00;;;;;;5026934;28;20430;-66
2023/03/13 13:16:53;;;;;;;1.10;0.22;;;17.10;32.40;;;;;;5029396;28;20430;-66
2023/03/13 13:19:23;;;;;;;0.30;0.20;;;17.20;1.00;;;;;;5030581;28;20517;-66
2023/03/13 13:22:27;;;;;;;0.22;0.22;;;17.30;1.00;;;;;;5030845;28;20437;-66
2023/03/13 13:25:20;;;;;;;3.30;0.60;;;17.90;1.00;;;;;;5028845;28;20617;-66
2023/03/13 13:27:48;;;;;;;0.43;0.43;;;19.50;99.90;;;;;;5013518;28;20467;-67
2023/03/13 13:30:18;;;;;;;0.60;0.40;;;20.90;55.90;;;;;;5013835;28;20462;-66
2023/03/13 13:32:50;;;;;;;0.20;0.20;;;21.40;99.90;;;;;;5013584;28;20535;-65
2023/03/13 13:35:28;;;;;;;0.40;0.40;;;21.20;99.90;;;;;;5014965;28;20479;-65
2023/03/13 13:38:16;;;;;;;0.30;0.30;;;20.30;99.90;;;;;;5032436;28;20453;-65
2023/03/13 13:41:11;;;;;;;0.30;0.30;;;19.80;99.90;;;;;;5029409;28;20430;-65